Hauptseite
METAR-TAF:

METAR-TAF

Flughäfen :

Flughafen Hannover-Langenhagen

Hannover, Deutschland

Breite: 52-28N, Länge: 009-41E, Höhe: 56 m

Beobachtung

Neuester Wetterbericht von vor 29 Minuten, um 04:50 UTC
Wind 5 kt aus West
Temperatur 10°C
Luftfeuchtigkeit 87%
Luftdruck 1021 hPa
Sichtweite 10 km oder mehr
Durchbrochene Bewölkung in der Höhe von 3000 ft

METAR: EDDV 240450Z 26005KT 9999 BKN030 10/08 Q1021 NOSIG

Zeit: 07:19 (05:19 UTC)

Prognose

Neuester Wetterbericht von vor 6 Stunden und 19 Minuten, um 23:00 UTC
Gültige Prognose vom 24 um 00 UTC bis 24 um 24 UTC
Wind 9 kt aus West
Sichtweite 10 km oder mehr
Durchbrochene Bewölkung in der Höhe von 3500 ft
Wahrscheinlichkeit 30% :
Zeitweise
vom 24 um 04 UTC bis 24 um 12 UTC
Sichtweite: 4500 m
Durchbrochene Bewölkung in der Höhe von 800 ft
Sprühregen leicht

TAF: EDDV 232300Z 2400/2424 28009KT 9999 BKN035 PROB30 TEMPO 2404/2412 4500 -DZ BKN008

Wetterbeobachtungen und Prognosen von mehr als 4000 Flughäfen (METAR und TAF Bericht).

Die verfügbaren Stationen werden durch gelbe und rote Markierungen auf der Karte dargestellt.

Führen Sie die Maus auf sie, um den Namen der Station zu sehen.

Darauf klicken, um die Beobachtung von Wetterbeobachtungen und Prognosen zu sehen.

Um die Karte zu ändern : klicken Sie auf den grünen Tasten mit einem schwarzen Kreuz Zum Vergrößern, auf den grünen Button mit einem Gedankenstrich zu verkleinern, oder auf die grünen Pfeile für benachbarte Karten.


METAR-TAF: